Time;durP1;ratioP1;P1;durP2;ratioP2;P2;SDS_P1;SDS_P2;PMS_P1;PMS_P2;Temp;Humidity;BMP_temperature;BMP_pressure;BME280_temperature;BME280_humidity;BME280_pressure;Samples;Min_cycle;Max_cycle;Signal;HPM_P1;HPM_P2
2021/09/16 00:01:57;;;;;;;9.97;4.90;;;15.80;99.90;;;;;;5048281;28;20181;-81
2021/09/16 00:04:23;;;;;;;7.90;4.37;;;15.90;99.90;;;;;;5049000;28;20264;-81
2021/09/16 00:06:49;;;;;;;10.30;4.33;;;15.90;99.90;;;;;;5045265;28;20639;-81
2021/09/16 00:09:17;;;;;;;10.50;4.87;;;15.80;99.90;;;;;;5039839;28;20202;-81
2021/09/16 00:11:48;;;;;;;9.57;4.10;;;15.80;99.90;;;;;;5038271;28;20548;-82
2021/09/16 00:14:14;;;;;;;8.53;4.27;;;15.80;99.90;;;;;;5037085;28;20184;-82
2021/09/16 00:16:39;;;;;;;9.33;4.40;;;15.90;99.90;;;;;;5035476;28;20540;-82
2021/09/16 00:19:05;;;;;;;9.20;4.40;;;16.00;99.90;;;;;;5035335;28;20315;-84
2021/09/16 00:21:31;;;;;;;12.50;4.30;;;16.10;99.90;;;;;;5036722;28;20169;-81
2021/09/16 00:23:57;;;;;;;7.87;4.27;;;16.10;99.50;;;;;;5035369;28;20706;-82
2021/09/16 00:26:22;;;;;;;10.03;4.57;;;16.10;99.50;;;;;;5036193;28;20704;-81
2021/09/16 00:28:48;;;;;;;9.17;4.30;;;16.20;99.30;;;;;;5041231;28;20182;-82
2021/09/16 00:31:14;;;;;;;7.60;4.13;;;16.20;99.20;;;;;;5059175;28;20158;-84
2021/09/16 00:33:39;;;;;;;8.13;4.17;;;16.20;99.10;;;;;;5059079;28;20269;-83
2021/09/16 00:36:05;;;;;;;7.30;3.93;;;16.30;99.10;;;;;;5054465;28;20162;-84
2021/09/16 00:38:31;;;;;;;8.00;4.40;;;16.30;99.40;;;;;;5057350;28;20174;-87
2021/09/16 00:40:59;;;;;;;9.27;4.47;;;16.30;99.50;;;;;;5036837;28;20268;-87
2021/09/16 00:43:44;;;;;;;10.03;4.57;;;16.40;99.40;;;;;;5036415;28;20181;-87
2021/09/16 00:46:09;;;;;;;8.73;4.90;;;16.50;98.60;;;;;;5040682;28;20170;-88
2021/09/16 00:48:36;;;;;;;8.97;4.27;;;16.50;97.70;;;;;;5041047;28;20209;-85
2021/09/16 00:51:02;;;;;;;10.20;4.83;;;16.50;97.90;;;;;;5041458;28;20235;-89
2021/09/16 00:53:30;;;;;;;13.10;4.90;;;16.40;97.70;;;;;;5038789;28;20178;-86
2021/09/16 00:55:57;;;;;;;7.93;4.40;;;16.30;97.70;;;;;;5036500;28;20212;-87
2021/09/16 00:58:29;;;;;;;8.30;3.90;;;16.20;97.90;;;;;;5036909;28;20236;-86
2021/09/16 01:00:58;;;;;;;8.13;3.80;;;16.20;98.50;;;;;;5038563;28;20193;-84
2021/09/16 01:03:25;;;;;;;13.57;3.87;;;16.10;98.60;;;;;;5037706;28;20273;-88
2021/09/16 01:05:51;;;;;;;9.93;4.20;;;16.10;98.60;;;;;;5038231;28;20192;-89
2021/09/16 01:08:18;;;;;;;7.37;3.80;;;16.00;98.90;;;;;;5039447;28;20273;-86
2021/09/16 01:10:44;;;;;;;6.27;3.53;;;16.10;98.90;;;;;;5058736;28;20170;-87
2021/09/16 01:13:10;;;;;;;8.30;3.27;;;16.00;98.60;;;;;;5037850;28;20184;-88
2021/09/16 01:15:37;;;;;;;7.43;3.60;;;16.00;98.90;;;;;;5038274;28;20175;-89
2021/09/16 01:18:15;;;;;;;7.53;3.77;;;16.10;99.00;;;;;;5035947;28;20268;-85
2021/09/16 01:20:41;;;;;;;6.93;3.67;;;15.90;99.30;;;;;;5035033;28;20177;-83
2021/09/16 01:23:07;;;;;;;8.43;4.20;;;15.80;99.90;;;;;;5036083;28;20176;-84
2021/09/16 01:25:33;;;;;;;8.07;3.93;;;15.70;99.90;;;;;;5034829;28;20189;-82
2021/09/16 01:28:00;;;;;;;8.87;4.00;;;15.60;99.90;;;;;;5034417;28;20300;-83
2021/09/16 01:30:27;;;;;;;7.77;4.03;;;15.70;99.90;;;;;;5035034;28;20653;-83
2021/09/16 01:32:55;;;;;;;8.50;4.10;;;15.60;99.90;;;;;;5034216;28;20751;-83
2021/09/16 01:35:22;;;;;;;6.73;3.97;;;15.60;99.90;;;;;;5034752;28;20646;-81
2021/09/16 01:37:48;;;;;;;8.00;4.47;;;15.60;99.90;;;;;;5036191;28;20239;-83
2021/09/16 01:40:15;;;;;;;10.10;4.00;;;15.50;99.90;;;;;;5033973;28;20213;-81
2021/09/16 01:42:42;;;;;;;7.53;3.70;;;15.50;99.90;;;;;;5035188;28;20681;-83
2021/09/16 01:45:17;;;;;;;9.77;4.47;;;15.60;99.90;;;;;;5035281;28;20161;-82
2021/09/16 01:47:44;;;;;;;6.87;3.53;;;15.60;99.90;;;;;;5034982;28;20235;-84
2021/09/16 01:50:14;;;;;;;8.27;3.87;;;15.70;99.90;;;;;;5035166;28;20216;-81
2021/09/16 01:52:41;;;;;;;6.67;3.70;;;15.80;99.90;;;;;;5034252;28;20252;-82
2021/09/16 01:55:10;;;;;;;7.70;4.00;;;15.70;99.90;;;;;;5035103;28;20178;-82
2021/09/16 01:57:36;;;;;;;9.13;4.17;;;15.60;99.90;;;;;;5034459;28;20169;-83
2021/09/16 02:00:04;;;;;;;6.03;4.07;;;15.50;99.90;;;;;;5036024;28;20232;-82
2021/09/16 02:02:30;;;;;;;8.63;4.73;;;15.50;99.90;;;;;;5035386;28;20173;-81
2021/09/16 02:04:55;;;;;;;8.27;4.20;;;15.50;99.90;;;;;;5036160;28;20669;-83
2021/09/16 02:07:21;;;;;;;10.97;4.97;;;15.60;99.90;;;;;;5044633;28;20170;-81
2021/09/16 02:09:47;;;;;;;8.27;4.50;;;15.50;99.90;;;;;;5054539;28;20237;-79
2021/09/16 02:12:12;;;;;;;8.57;4.60;;;15.60;99.90;;;;;;5051138;28;20188;-82
2021/09/16 02:14:38;;;;;;;9.53;4.60;;;15.50;99.90;;;;;;5056502;28;20162;-82
2021/09/16 02:17:04;;;;;;;8.17;4.80;;;15.40;99.90;;;;;;5055936;28;20173;-82
2021/09/16 02:19:30;;;;;;;12.17;5.17;;;15.50;99.90;;;;;;5042842;28;20233;-82
2021/09/16 02:21:56;;;;;;;8.40;4.77;;;15.50;99.90;;;;;;5036302;28;20652;-82
2021/09/16 02:24:22;;;;;;;10.27;4.30;;;15.40;99.90;;;;;;5035906;28;20185;-82
2021/09/16 02:26:50;;;;;;;8.73;4.57;;;15.40;99.90;;;;;;5034386;28;20186;-88
2021/09/16 02:29:16;;;;;;;7.90;5.00;;;15.30;99.90;;;;;;5041107;28;20221;-84
2021/09/16 02:31:42;;;;;;;9.03;4.80;;;15.20;99.90;;;;;;5043448;28;20178;-84
2021/09/16 02:34:08;;;;;;;9.73;4.17;;;15.10;99.90;;;;;;5057637;28;20185;-83
2021/09/16 02:36:34;;;;;;;7.07;4.70;;;15.20;99.90;;;;;;5057087;28;20162;-83
2021/09/16 02:38:59;;;;;;;11.23;5.03;;;15.00;99.90;;;;;;5053234;28;20642;-86
2021/09/16 02:41:27;;;;;;;10.30;4.77;;;15.00;99.90;;;;;;5044156;28;20235;-87
2021/09/16 02:43:53;;;;;;;11.70;4.83;;;15.00;99.90;;;;;;5040471;28;20180;-87
2021/09/16 02:46:20;;;;;;;8.63;4.63;;;15.00;99.90;;;;;;5034784;28;20177;-87
2021/09/16 02:48:48;;;;;;;7.30;4.13;;;15.00;99.90;;;;;;5034581;28;20700;-85
2021/09/16 02:51:14;;;;;;;8.73;4.97;;;15.00;99.90;;;;;;5034287;28;20266;-87
2021/09/16 02:53:40;;;;;;;10.30;4.57;;;14.90;99.90;;;;;;5035742;28;20162;-87
2021/09/16 02:56:06;;;;;;;9.90;4.77;;;15.00;99.90;;;;;;5041474;28;20174;-85
2021/09/16 02:58:32;;;;;;;8.57;5.10;;;15.00;99.90;;;;;;5026216;28;20189;-87
2021/09/16 03:00:58;;;;;;;13.17;4.87;;;14.90;99.90;;;;;;5040563;28;20173;-87
2021/09/16 03:03:25;;;;;;;12.97;5.77;;;15.00;99.90;;;;;;5037694;28;20231;-87
2021/09/16 03:05:51;;;;;;;8.50;4.43;;;15.10;99.90;;;;;;5036323;28;20200;-88
2021/09/16 03:08:16;;;;;;;10.13;4.70;;;15.10;99.90;;;;;;5036527;28;20263;-88
2021/09/16 03:10:42;;;;;;;8.30;4.80;;;15.20;99.90;;;;;;5039047;28;20166;-87
2021/09/16 03:13:08;;;;;;;9.87;4.73;;;15.20;99.90;;;;;;5040235;28;20657;-86
2021/09/16 03:15:34;;;;;;;9.80;5.40;;;15.20;99.90;;;;;;5039605;28;20203;-88
2021/09/16 03:18:00;;;;;;;8.63;4.70;;;15.10;99.90;;;;;;5039751;28;20174;-87
2021/09/16 03:20:26;;;;;;;12.53;5.03;;;15.00;99.90;;;;;;5039656;28;20174;-87
2021/09/16 03:22:52;;;;;;;11.07;5.03;;;15.20;99.90;;;;;;5039601;28;20172;-89
2021/09/16 03:25:18;;;;;;;9.27;5.30;;;15.10;99.90;;;;;;5042496;28;20158;-88
2021/09/16 03:27:43;;;;;;;6.17;4.27;;;15.00;99.90;;;;;;5039922;28;20619;-88
2021/09/16 03:30:13;;;;;;;8.97;4.57;;;14.90;99.90;;;;;;5042432;28;20178;-87
2021/09/16 03:32:39;;;;;;;8.47;4.67;;;14.90;99.90;;;;;;5040850;28;20174;-88
2021/09/16 03:35:07;;;;;;;9.03;4.57;;;14.90;99.90;;;;;;5041394;28;20254;-87
2021/09/16 03:37:35;;;;;;;8.93;4.80;;;14.90;99.90;;;;;;5039791;28;20178;-87
2021/09/16 03:40:01;;;;;;;10.33;4.50;;;14.80;99.90;;;;;;5041459;28;20178;-86
2021/09/16 03:42:26;;;;;;;6.63;4.67;;;14.90;99.90;;;;;;5040577;28;20177;-84
2021/09/16 03:44:53;;;;;;;9.33;4.83;;;14.80;99.90;;;;;;5051158;28;20153;-86
2021/09/16 03:47:19;;;;;;;7.33;4.27;;;14.90;99.90;;;;;;5060900;28;20193;-87
2021/09/16 03:49:44;;;;;;;7.87;4.10;;;15.00;99.90;;;;;;5059815;28;20209;-84
2021/09/16 03:52:11;;;;;;;7.77;4.60;;;14.90;99.90;;;;;;5059952;28;20173;-86
2021/09/16 03:54:39;;;;;;;7.60;4.27;;;14.90;99.90;;;;;;5045574;28;20708;-87
2021/09/16 03:57:45;;;;;;;11.37;4.77;;;15.10;99.90;;;;;;5040771;28;20151;-84
2021/09/16 04:00:11;;;;;;;11.40;5.10;;;15.00;99.90;;;;;;5039034;28;20169;-83
2021/09/16 04:02:38;;;;;;;7.60;4.50;;;15.10;99.90;;;;;;5038914;28;20192;-88
2021/09/16 04:05:05;;;;;;;8.80;4.27;;;15.30;99.90;;;;;;5038805;28;20196;-89
2021/09/16 04:07:31;;;;;;;9.27;4.13;;;15.10;99.90;;;;;;5038248;28;20204;-83
2021/09/16 04:09:56;;;;;;;7.10;4.30;;;15.10;99.90;;;;;;5045052;28;20204;-83
2021/09/16 04:12:22;;;;;;;9.83;4.37;;;15.20;99.90;;;;;;5060707;28;20154;-84
2021/09/16 04:14:48;;;;;;;11.03;4.97;;;15.30;99.90;;;;;;5057541;28;20645;-83
2021/09/16 04:17:14;;;;;;;6.67;4.27;;;15.20;99.90;;;;;;5037674;28;20177;-83
2021/09/16 04:19:39;;;;;;;13.33;5.30;;;15.20;99.90;;;;;;5037156;28;20185;-82
2021/09/16 04:22:08;;;;;;;8.00;4.50;;;15.20;99.90;;;;;;5048082;28;20170;-89
2021/09/16 04:24:52;;;;;;;8.33;4.50;;;15.10;99.90;;;;;;5039931;28;20177;-87
2021/09/16 04:27:18;;;;;;;8.93;4.87;;;15.10;99.90;;;;;;5040178;28;20176;-88
2021/09/16 04:29:44;;;;;;;7.60;4.17;;;15.10;99.90;;;;;;5039060;28;20177;-88
2021/09/16 04:32:10;;;;;;;7.00;4.00;;;15.10;99.90;;;;;;5038103;28;20204;-81
2021/09/16 04:34:36;;;;;;;8.83;4.67;;;15.10;99.90;;;;;;5037869;28;20630;-80
2021/09/16 04:37:02;;;;;;;7.43;4.07;;;15.40;99.90;;;;;;5058109;28;20193;-83
2021/09/16 04:39:27;;;;;;;8.60;4.30;;;15.20;99.90;;;;;;5059975;28;20189;-84
2021/09/16 04:41:53;;;;;;;6.13;4.37;;;15.20;99.90;;;;;;5056810;28;20197;-82
2021/09/16 04:44:19;;;;;;;9.83;4.60;;;15.20;99.90;;;;;;5059840;28;20162;-83
2021/09/16 04:46:46;;;;;;;5.93;4.40;;;15.30;99.90;;;;;;5060607;28;20192;-82
2021/09/16 04:49:15;;;;;;;7.63;4.03;;;15.50;99.90;;;;;;5059588;28;20213;-84
2021/09/16 04:51:41;;;;;;;7.97;3.87;;;15.30;99.90;;;;;;5043633;28;20173;-82
2021/09/16 04:54:09;;;;;;;12.13;4.77;;;15.40;99.90;;;;;;5042607;28;20165;-85
2021/09/16 04:56:54;;;;;;;7.97;4.67;;;15.40;99.90;;;;;;5040085;28;20166;-83
2021/09/16 05:02:42;;;;;;;10.87;4.57;;;15.30;99.90;;;;;;5055505;28;20180;-82
2021/09/16 05:05:10;;;;;;;11.70;5.03;;;15.50;99.90;;;;;;5055854;28;20209;-82
2021/09/16 05:07:36;;;;;;;13.27;5.87;;;15.60;99.90;;;;;;5056471;28;20198;-80
2021/09/16 05:10:02;;;;;;;10.40;5.73;;;15.60;99.90;;;;;;5036946;28;20209;-82
2021/09/16 05:12:28;;;;;;;8.97;5.53;;;15.40;99.90;;;;;;5035972;28;20210;-83
2021/09/16 05:14:54;;;;;;;9.27;5.33;;;15.20;99.90;;;;;;5036059;28;20253;-83
2021/09/16 05:17:23;;;;;;;10.63;5.90;;;15.20;99.90;;;;;;5035651;28;20177;-84
2021/09/16 05:19:50;;;;;;;15.63;5.93;;;15.10;99.90;;;;;;5035268;28;20181;-83
2021/09/16 05:22:19;;;;;;;10.70;5.50;;;15.10;99.90;;;;;;5034377;28;20177;-81
2021/09/16 05:24:46;;;;;;;11.73;5.07;;;15.10;99.90;;;;;;5035501;28;20235;-82
2021/09/16 05:27:11;;;;;;;10.87;5.17;;;15.10;99.90;;;;;;5034422;28;20174;-84
2021/09/16 05:29:37;;;;;;;9.33;5.50;;;15.20;99.90;;;;;;5034974;28;20248;-83
2021/09/16 05:32:03;;;;;;;11.47;5.70;;;15.20;99.90;;;;;;5035810;28;20170;-83
2021/09/16 05:34:29;;;;;;;16.37;5.70;;;15.20;99.90;;;;;;5034306;28;20544;-85
2021/09/16 05:36:54;;;;;;;9.77;5.00;;;15.10;99.90;;;;;;5034411;28;20689;-84
2021/09/16 05:39:25;;;;;;;11.03;5.67;;;15.10;99.90;;;;;;5034139;28;20180;-84
2021/09/16 05:41:52;;;;;;;11.53;5.53;;;15.20;99.90;;;;;;5034112;28;20184;-82
2021/09/16 05:44:18;;;;;;;10.73;5.43;;;15.20;99.90;;;;;;5034903;28;20178;-82
2021/09/16 05:46:43;;;;;;;14.07;5.70;;;15.30;99.90;;;;;;5033687;28;20583;-82
2021/09/16 05:49:09;;;;;;;9.73;5.60;;;15.30;99.90;;;;;;5034782;28;20217;-82
2021/09/16 05:51:34;;;;;;;11.33;5.90;;;15.30;99.90;;;;;;5033482;28;20197;-81
2021/09/16 05:54:00;;;;;;;20.30;6.57;;;15.50;99.90;;;;;;5034965;28;20231;-82
2021/09/16 05:56:32;;;;;;;9.30;5.90;;;15.50;99.90;;;;;;5033960;28;20195;-82
2021/09/16 05:58:58;;;;;;;14.90;6.43;;;15.50;99.90;;;;;;5034217;28;20177;-83
2021/09/16 06:01:24;;;;;;;12.47;6.23;;;15.40;99.90;;;;;;5033210;28;20192;-83
2021/09/16 06:03:50;;;;;;;11.40;6.47;;;15.40;99.90;;;;;;5017171;28;20220;-81
2021/09/16 06:06:16;;;;;;;12.73;6.60;;;15.30;99.90;;;;;;5033355;28;20228;-81
2021/09/16 06:08:42;;;;;;;15.37;6.13;;;15.50;99.90;;;;;;5032807;28;20202;-82
2021/09/16 06:11:09;;;;;;;12.33;6.43;;;15.40;99.90;;;;;;5034931;28;20212;-85
2021/09/16 06:13:35;;;;;;;14.40;6.67;;;15.40;99.90;;;;;;5034278;28;20792;-87
2021/09/16 06:16:03;;;;;;;13.73;7.93;;;15.50;99.90;;;;;;5035617;28;20172;-85
2021/09/16 06:18:28;;;;;;;13.40;7.17;;;15.50;99.90;;;;;;5036374;28;20628;-89
2021/09/16 06:20:54;;;;;;;13.27;7.40;;;15.70;99.90;;;;;;5037044;28;20178;-86
2021/09/16 06:23:20;;;;;;;15.60;7.73;;;15.60;99.90;;;;;;5039514;28;20821;-82
2021/09/16 06:25:46;;;;;;;15.60;7.67;;;15.50;99.90;;;;;;5036321;28;20172;-87
2021/09/16 06:28:11;;;;;;;17.33;8.00;;;15.50;99.90;;;;;;5034748;28;20558;-87
2021/09/16 06:30:38;;;;;;;19.43;8.33;;;15.50;99.90;;;;;;5028940;28;20213;-86
2021/09/16 06:33:04;;;;;;;14.07;8.60;;;15.50;99.90;;;;;;5028895;28;20662;-87
2021/09/16 06:35:29;;;;;;;17.60;11.50;;;15.80;99.90;;;;;;5052766;28;20197;-87
2021/09/16 06:37:55;;;;;;;17.37;8.90;;;15.70;99.90;;;;;;5054067;28;20230;-87
2021/09/16 06:40:21;;;;;;;12.90;9.70;;;15.90;99.90;;;;;;5054989;28;20208;-86
2021/09/16 06:42:47;;;;;;;13.67;8.90;;;15.90;99.90;;;;;;5053366;28;20193;-85
2021/09/16 06:45:13;;;;;;;13.97;9.20;;;15.80;99.90;;;;;;5054791;28;20165;-85
2021/09/16 06:47:39;;;;;;;16.30;9.63;;;15.80;99.90;;;;;;5056669;28;20513;-88
2021/09/16 06:50:06;;;;;;;16.73;9.67;;;15.90;99.90;;;;;;5067104;28;20197;-86
2021/09/16 06:52:32;;;;;;;16.03;9.80;;;15.80;99.90;;;;;;5070980;28;20180;-82
2021/09/16 06:54:58;;;;;;;16.77;10.80;;;15.80;99.90;;;;;;5066661;28;20549;-82
2021/09/16 06:57:24;;;;;;;15.60;10.23;;;15.80;99.90;;;;;;5067292;28;20180;-83
2021/09/16 06:59:49;;;;;;;14.47;9.60;;;16.00;99.90;;;;;;5051102;28;20181;-84
2021/09/16 07:02:18;;;;;;;16.50;10.40;;;16.10;99.90;;;;;;5036810;28;20162;-86
2021/09/16 07:04:44;;;;;;;18.83;11.60;;;16.10;99.90;;;;;;5044310;28;20197;-81
2021/09/16 07:07:15;;;;;;;13.77;10.33;;;16.10;99.90;;;;;;5047318;28;20176;-85
2021/09/16 07:09:41;;;;;;;15.03;10.60;;;16.30;99.90;;;;;;5036323;28;20203;-83
2021/09/16 07:12:07;;;;;;;16.57;12.13;;;16.20;99.90;;;;;;5042893;28;20173;-82
2021/09/16 07:14:36;;;;;;;14.73;11.70;;;16.30;99.90;;;;;;5047111;28;20181;-81
2021/09/16 07:17:01;;;;;;;16.20;12.03;;;16.40;99.90;;;;;;5052711;28;20170;-85
2021/09/16 07:19:27;;;;;;;17.10;12.13;;;16.40;99.90;;;;;;5039187;28;20200;-83
2021/09/16 07:21:54;;;;;;;22.80;12.47;;;16.40;99.90;;;;;;5037835;28;20178;-87
2021/09/16 07:24:23;;;;;;;19.13;12.57;;;16.50;99.90;;;;;;5036067;28;20688;-88
2021/09/16 07:26:51;;;;;;;20.67;12.20;;;16.40;99.90;;;;;;5052657;28;20185;-83
2021/09/16 07:29:22;;;;;;;16.07;12.73;;;16.50;99.90;;;;;;5052149;28;20247;-85
2021/09/16 07:31:50;;;;;;;19.37;12.67;;;16.60;99.90;;;;;;5036147;28;20183;-87
2021/09/16 07:34:19;;;;;;;19.37;12.93;;;16.80;99.90;;;;;;5035419;28;20178;-87
2021/09/16 07:36:52;;;;;;;19.67;13.27;;;16.80;99.90;;;;;;5034814;28;20193;-86
2021/09/16 07:39:19;;;;;;;16.57;12.63;;;16.90;99.90;;;;;;5034707;28;20212;-87
2021/09/16 07:41:47;;;;;;;18.33;13.90;;;17.00;99.90;;;;;;5034439;28;20178;-87
2021/09/16 07:44:15;;;;;;;18.77;13.50;;;17.10;99.90;;;;;;5034667;28;20191;-87
2021/09/16 07:46:41;;;;;;;19.10;13.87;;;17.20;99.70;;;;;;5033157;28;20193;-81
2021/09/16 07:49:07;;;;;;;19.27;13.20;;;17.20;99.80;;;;;;5031829;28;20243;-81
2021/09/16 07:51:33;;;;;;;19.97;14.07;;;17.10;99.90;;;;;;5049268;28;20179;-83
2021/09/16 07:53:59;;;;;;;19.83;13.33;;;17.10;99.90;;;;;;5057908;28;20177;-84
2021/09/16 07:56:27;;;;;;;21.67;14.47;;;17.30;99.90;;;;;;5053961;28;20272;-80
2021/09/16 07:58:56;;;;;;;17.93;14.30;;;17.20;99.90;;;;;;5037286;28;20191;-82
2021/09/16 08:01:25;;;;;;;20.67;14.80;;;17.40;99.90;;;;;;5025187;28;20244;-82
2021/09/16 08:03:54;;;;;;;22.23;15.60;;;17.60;99.40;;;;;;5044288;28;20222;-82
2021/09/16 08:06:20;;;;;;;20.60;15.13;;;17.80;98.70;;;;;;5036245;28;20193;-84
2021/09/16 08:08:46;;;;;;;22.30;15.10;;;17.90;97.90;;;;;;5033609;28;20229;-82
2021/09/16 08:11:12;;;;;;;18.50;14.00;;;18.20;96.70;;;;;;5054654;28;20228;-86
2021/09/16 08:13:38;;;;;;;19.47;15.57;;;18.10;97.30;;;;;;5056747;28;20194;-84
2021/09/16 08:16:04;;;;;;;18.83;14.67;;;18.20;97.30;;;;;;5055694;28;20181;-84
2021/09/16 08:18:29;;;;;;;19.83;14.63;;;18.20;97.00;;;;;;5053593;28;20183;-84
2021/09/16 08:20:55;;;;;;;22.37;15.37;;;18.40;96.80;;;;;;5050163;28;20179;-86
2021/09/16 08:23:22;;;;;;;21.70;15.93;;;18.30;96.20;;;;;;5038387;28;20635;-87
2021/09/16 08:25:49;;;;;;;21.07;16.23;;;18.40;96.90;;;;;;5038511;28;20180;-84
2021/09/16 08:28:15;;;;;;;20.60;14.93;;;18.50;96.50;;;;;;5037121;28;20230;-85
2021/09/16 08:30:41;;;;;;;21.67;15.93;;;18.70;95.70;;;;;;5040307;28;20270;-86
2021/09/16 08:33:07;;;;;;;17.53;14.63;;;18.90;94.90;;;;;;5038655;28;20179;-83
2021/09/16 08:35:33;;;;;;;19.87;14.60;;;19.00;92.90;;;;;;5034532;28;20666;-82
2021/09/16 08:37:59;;;;;;;23.13;14.93;;;19.10;92.40;;;;;;5035362;28;20175;-83
2021/09/16 08:40:27;;;;;;;19.30;14.53;;;19.20;91.90;;;;;;5034928;28;20175;-82
2021/09/16 08:42:53;;;;;;;20.80;15.57;;;19.30;91.10;;;;;;5034441;28;20234;-83
2021/09/16 08:45:21;;;;;;;22.37;15.30;;;19.10;91.50;;;;;;5034633;28;20282;-83
2021/09/16 08:47:54;;;;;;;19.83;14.07;;;19.20;91.80;;;;;;5035216;28;20257;-84
2021/09/16 08:50:28;;;;;;;15.20;12.77;;;19.40;90.90;;;;;;5034345;28;20210;-81
2021/09/16 08:52:56;;;;;;;19.43;12.73;;;19.30;88.60;;;;;;5034693;28;20234;-84
2021/09/16 08:55:24;;;;;;;18.23;13.53;;;19.20;88.10;;;;;;5036027;28;20167;-83
2021/09/16 08:57:59;;;;;;;18.33;13.87;;;19.20;89.00;;;;;;5035872;28;20174;-82
2021/09/16 09:00:26;;;;;;;18.50;12.93;;;19.10;91.00;;;;;;5038117;28;20182;-82
2021/09/16 09:02:53;;;;;;;16.20;13.07;;;18.90;91.50;;;;;;5033910;28;20644;-82
2021/09/16 09:05:29;;;;;;;18.23;13.43;;;19.00;91.40;;;;;;5034514;28;20190;-83
2021/09/16 09:08:01;;;;;;;21.30;13.00;;;19.00;91.40;;;;;;5035369;28;20215;-79
2021/09/16 09:10:39;;;;;;;18.30;12.77;;;19.10;91.40;;;;;;5033935;28;20210;-82
2021/09/16 09:13:27;;;;;;;17.80;12.07;;;19.10;90.10;;;;;;5036820;28;20183;-80
2021/09/16 09:16:05;;;;;;;13.07;11.27;;;19.20;90.50;;;;;;5032936;28;20278;-81
2021/09/16 09:18:49;;;;;;;15.50;11.33;;;19.30;85.60;;;;;;5036407;28;20171;-81
2021/09/16 09:21:16;;;;;;;15.20;12.00;;;19.80;86.40;;;;;;5038719;28;20200;-80
2021/09/16 09:23:51;;;;;;;13.67;11.07;;;20.00;81.80;;;;;;5034794;28;20184;-82
2021/09/16 09:26:31;;;;;;;15.37;10.30;;;20.00;72.30;;;;;;5034528;28;20178;-82
2021/09/16 09:29:09;;;;;;;14.47;11.00;;;20.00;70.70;;;;;;5034047;28;20225;-83
2021/09/16 09:31:37;;;;;;;14.27;9.20;;;19.90;66.60;;;;;;5035470;28;20162;-83
2021/09/16 09:34:23;;;;;;;8.97;5.90;;;20.00;63.50;;;;;;5035672;28;20664;-85
2021/09/16 09:36:50;;;;;;;7.97;5.87;;;19.90;51.10;;;;;;5033261;28;20211;-82
2021/09/16 09:39:25;;;;;;;8.77;6.30;;;19.90;48.50;;;;;;5033373;28;20180;-81
2021/09/16 09:41:50;;;;;;;9.80;6.20;;;20.00;50.60;;;;;;5032853;28;20177;-82
2021/09/16 09:44:16;;;;;;;8.53;5.97;;;20.00;50.60;;;;;;5035000;28;20184;-83
2021/09/16 09:46:51;;;;;;;8.10;5.37;;;20.10;41.90;;;;;;5032723;28;20177;-81
2021/09/16 09:49:21;;;;;;;5.47;4.07;;;20.10;51.20;;;;;;5033239;28;20229;-83
2021/09/16 09:51:58;;;;;;;7.20;4.10;;;20.20;30.90;;;;;;5033965;28;20577;-84
2021/09/16 09:54:31;;;;;;;6.63;4.20;;;20.20;34.50;;;;;;5033979;28;20652;-82
2021/09/16 09:57:01;;;;;;;11.17;6.97;;;20.20;32.10;;;;;;5037330;28;20172;-85
2021/09/16 09:59:48;;;;;;;6.17;3.80;;;20.50;36.00;;;;;;5048346;28;20188;-81
2021/09/16 10:02:16;;;;;;;6.67;4.80;;;20.70;27.10;;;;;;5032226;28;20542;-82
2021/09/16 10:04:43;;;;;;;6.47;4.30;;;20.90;35.90;;;;;;5042105;28;20179;-83
2021/09/16 10:07:09;;;;;;;8.73;5.23;;;21.00;29.70;;;;;;5048451;28;20187;-82
2021/09/16 10:09:36;;;;;;;7.57;5.63;;;21.00;23.60;;;;;;5038959;28;20208;-82
2021/09/16 10:12:02;;;;;;;10.87;9.03;;;20.80;22.80;;;;;;5047065;28;20191;-80
2021/09/16 10:14:27;;;;;;;8.50;4.50;;;20.70;27.10;;;;;;5046802;28;20183;-84
2021/09/16 10:16:53;;;;;;;6.50;4.07;;;20.80;28.40;;;;;;5047519;28;20188;-83
2021/09/16 10:19:21;;;;;;;6.03;4.00;;;20.90;1.00;;;;;;5051501;28;20180;-80
2021/09/16 10:21:48;;;;;;;6.63;3.53;;;20.90;1.00;;;;;;5045786;28;20165;-85
2021/09/16 10:24:17;;;;;;;5.00;3.57;;;20.90;1.00;;;;;;5041316;28;20176;-86
2021/09/16 10:26:50;;;;;;;4.33;3.07;;;20.80;1.00;;;;;;5040104;28;20191;-87
2021/09/16 10:29:28;;;;;;;4.83;3.50;;;20.70;1.00;;;;;;5041422;28;20218;-85
2021/09/16 10:32:00;;;;;;;7.27;3.43;;;20.70;1.00;;;;;;5042136;28;20218;-82
2021/09/16 10:37:44;;;;;;;5.13;3.10;;;21.00;1.00;;;;;;5054142;28;20628;-85
2021/09/16 10:40:29;;;;;;;3.53;2.63;;;20.90;1.00;;;;;;5061231;28;20629;-87
2021/09/16 10:43:01;;;;;;;5.93;3.23;;;20.90;1.00;;;;;;5057637;28;20172;-84
2021/09/16 10:45:40;;;;;;;5.37;2.97;;;20.80;1.00;;;;;;5057603;28;20245;-85
2021/09/16 10:48:16;;;;;;;3.67;2.50;;;20.80;1.00;;;;;;5051637;28;20609;-85
2021/09/16 10:50:47;;;;;;;4.53;2.80;;;21.00;1.00;;;;;;5041140;28;20200;-85
2021/09/16 10:53:42;;;;;;;4.93;3.20;;;21.00;1.00;;;;;;5041140;28;20206;-89
2021/09/16 10:56:35;;;;;;;4.10;3.00;;;21.00;1.00;;;;;;5047551;28;20184;-86
2021/09/16 10:59:00;;;;;;;3.73;2.50;;;21.00;1.00;;;;;;5046815;28;20219;-87
2021/09/16 11:01:53;;;;;;;4.03;2.50;;;21.00;1.00;;;;;;5039201;28;20176;-84
2021/09/16 11:04:19;;;;;;;4.53;2.53;;;21.10;1.00;;;;;;5035518;28;20212;-84
2021/09/16 11:06:45;;;;;;;4.30;3.60;;;21.10;1.00;;;;;;5046821;28;20195;-81
2021/09/16 11:09:24;;;;;;;5.13;3.27;;;21.10;1.00;;;;;;5041500;28;20223;-82
2021/09/16 11:11:54;;;;;;;3.93;2.47;;;21.10;1.00;;;;;;5043742;28;20176;-82
2021/09/16 11:14:36;;;;;;;6.43;3.73;;;21.30;1.00;;;;;;5041836;28;20260;-84
2021/09/16 11:17:06;;;;;;;4.30;3.40;;;21.40;1.00;;;;;;5034089;28;20180;-84
2021/09/16 11:19:45;;;;;;;4.40;3.10;;;21.40;1.00;;;;;;5035264;28;20172;-84
2021/09/16 11:22:11;;;;;;;5.57;3.30;;;21.40;1.00;;;;;;5037312;28;20188;-84
2021/09/16 11:25:04;;;;;;;5.10;3.13;;;21.20;1.00;;;;;;5035057;28;20181;-85
2021/09/16 11:27:35;;;;;;;5.83;3.63;;;21.40;1.00;;;;;;5040027;28;20593;-83
2021/09/16 11:30:02;;;;;;;7.17;4.17;;;21.20;1.00;;;;;;5042206;28;20176;-80
2021/09/16 11:32:37;;;;;;;4.50;3.70;;;21.20;1.00;;;;;;5059636;28;20167;-83
2021/09/16 11:35:07;;;;;;;5.60;4.27;;;21.10;1.00;;;;;;5054982;28;20211;-82
2021/09/16 11:37:47;;;;;;;4.60;3.83;;;21.00;1.00;;;;;;5046788;28;20171;-84
2021/09/16 11:40:24;;;;;;;6.23;4.30;;;20.80;1.00;;;;;;5047491;28;20175;-82
2021/09/16 11:43:22;;;;;;;7.40;4.13;;;20.80;1.00;;;;;;5041618;28;20232;-82
2021/09/16 11:46:18;;;;;;;7.53;4.87;;;20.90;1.00;;;;;;5049085;28;20250;-80
2021/09/16 11:49:01;;;;;;;6.93;4.70;;;21.30;1.00;;;;;;5045461;28;20208;-80
2021/09/16 11:51:56;;;;;;;5.90;4.03;;;21.30;1.00;;;;;;5041861;28;20169;-87
2021/09/16 11:54:22;;;;;;;6.53;4.30;;;21.40;1.00;;;;;;5039601;28;20181;-85
2021/09/16 11:57:00;;;;;;;8.60;5.37;;;21.50;1.00;;;;;;5039507;28;20191;-84
2021/09/16 11:59:27;;;;;;;8.70;5.70;;;21.60;1.00;;;;;;5040684;28;20374;-86
2021/09/16 12:01:56;;;;;;;6.70;5.20;;;21.80;1.00;;;;;;5038993;28;20272;-85
2021/09/16 12:04:41;;;;;;;6.83;4.37;;;21.80;1.00;;;;;;5039747;28;20260;-83
2021/09/16 12:07:21;;;;;;;7.97;4.70;;;21.90;1.00;;;;;;5043513;28;20192;-88
2021/09/16 12:09:59;;;;;;;6.40;4.13;;;22.00;1.00;;;;;;5027993;28;20254;-85
2021/09/16 12:12:24;;;;;;;6.37;5.17;;;21.80;1.00;;;;;;5041013;28;20176;-87
2021/09/16 12:14:51;;;;;;;7.33;5.37;;;21.80;1.00;;;;;;5044188;28;20188;-87
2021/09/16 12:17:18;;;;;;;7.50;5.20;;;21.80;1.00;;;;;;5043763;28;20174;-84
2021/09/16 12:19:45;;;;;;;8.30;5.97;;;21.70;1.00;;;;;;5043978;28;20659;-88
2021/09/16 12:22:15;;;;;;;8.50;6.53;;;21.90;1.00;;;;;;5043087;28;20169;-91
2021/09/16 12:24:41;;;;;;;8.70;7.20;;;21.80;1.00;;;;;;5051370;28;20239;-88
2021/09/16 12:27:13;;;;;;;10.77;8.30;;;21.80;1.00;;;;;;5044312;28;20629;-87
2021/09/16 12:29:39;;;;;;;9.33;7.03;;;21.80;1.00;;;;;;5043945;28;20311;-87
2021/09/16 12:32:08;;;;;;;9.47;6.70;;;21.60;1.00;;;;;;5051193;28;20173;-82
2021/09/16 12:34:41;;;;;;;8.70;7.13;;;21.60;1.00;;;;;;5055954;28;20200;-83
2021/09/16 12:37:14;;;;;;;8.13;7.33;;;21.40;1.00;;;;;;5056982;28;20300;-85
2021/09/16 12:39:52;;;;;;;7.47;6.30;;;21.40;1.00;;;;;;5056089;28;20182;-88
2021/09/16 12:42:38;;;;;;;7.40;5.27;;;21.40;1.00;;;;;;5057611;28;20216;-86
2021/09/16 12:45:09;;;;;;;7.87;6.20;;;21.40;1.00;;;;;;5058099;28;20244;-85
2021/09/16 12:47:49;;;;;;;7.37;6.57;;;21.50;1.00;;;;;;5050645;28;20208;-85
2021/09/16 12:50:15;;;;;;;5.70;5.10;;;21.70;1.00;;;;;;5043344;28;20196;-82
2021/09/16 12:52:41;;;;;;;6.27;5.50;;;21.80;1.00;;;;;;5048908;28;20241;-87
2021/09/16 12:55:11;;;;;;;9.10;6.17;;;22.00;1.00;;;;;;5048520;28;20200;-82
2021/09/16 12:57:42;;;;;;;6.87;5.40;;;22.20;1.00;;;;;;5027786;28;20265;-83
2021/09/16 13:00:14;;;;;;;6.70;5.27;;;22.50;1.00;;;;;;5053283;28;20264;-87